40.8°F
Current conditions from King Hill
Updated every 5 minutes
 
  Tuesday November 25, 2014

Station Historical Data
Daily Summary for June 7, 2011 Units:  Metric    English   Both
« Previous Day
Next Day »
Daily Weekly Monthly Yearly Custom
  High: Low: Average:
Temperature: 28.7 °C 11.2 °C 19.5 °C
Dew Point: 18.8 °C 10.3 °C 13.9 °C
Humidity: 96% 42% 73%
Wind Speed: 8km/h 0km/h 3.5km/h
Wind Gust: 19.3km/h - -
Wind- - WSW
Pressure: 1013.1 hPa 1007 hPa -
Precipitation: 0 mm    
Historical Graphs
 
 
Tabular Data for June 7, 2011
Time Temperature Dew Point Pressure Wind Wind Speed Wind Gust Humidity Daily Rainfall
00:00 12.9 °C 11.2 °C 1013.1 hPa Calm     89% 0 mm
00:05 12.8 °C 11.1 °C 1013.1 hPa Calm     89% 0 mm
00:10 12.8 °C 11.1 °C 1013.1 hPa Calm     89% 0 mm
00:15 12.8 °C 11 °C 1013.1 hPa Calm     89% 0 mm
00:20 12.8 °C 11.2 °C 1013.1 hPa Calm     90% 0 mm
00:25 12.7 °C 11.1 °C 1013.1 hPa Calm     90% 0 mm
00:30 12.7 °C 11.1 °C 1013.1 hPa Calm     90% 0 mm
00:35 12.7 °C 11.1 °C 1013.1 hPa Calm     90% 0 mm
00:40 12.7 °C 11.3 °C 1013.1 hPa Calm     91% 0 mm
00:45 12.8 °C 11.3 °C 1013.1 hPa Calm     91% 0 mm
00:50 12.8 °C 11.3 °C 1013.1 hPa Calm     91% 0 mm
00:55 12.7 °C 11.4 °C 1013.1 hPa Calm     92% 0 mm
01:00 12.6 °C 11.3 °C 1013.1 hPa Calm     92% 0 mm
01:10 12.4 °C 11.2 °C 1012.8 hPa Calm     92% 0 mm
01:15 12.4 °C 11.1 °C 1012.8 hPa Calm     92% 0 mm
01:20 12.3 °C 11.1 °C 1012.8 hPa Calm     92% 0 mm
01:25 12.2 °C 10.9 °C 1012.8 hPa Calm     92% 0 mm
01:30 12.2 °C 10.9 °C 1012.8 hPa Calm     92% 0 mm
01:35 12.2 °C 10.9 °C 1012.8 hPa Calm     92% 0 mm
01:40 12.2 °C 10.9 °C 1012.8 hPa Calm     92% 0 mm
01:45 12.2 °C 10.9 °C 1012.8 hPa Calm     92% 0 mm
01:50 12.1 °C 10.8 °C 1012.8 hPa Calm     92% 0 mm
01:55 12.1 °C 10.9 °C 1012.4 hPa Calm     93% 0 mm
02:00 12.2 °C 11.1 °C 1012.4 hPa Calm     93% 0 mm
02:05 12.2 °C 11.1 °C 1012.4 hPa Calm     93% 0 mm
02:10 12.1 °C 10.9 °C 1012.4 hPa Calm     93% 0 mm
02:15 12 °C 10.9 °C 1012.4 hPa Calm     93% 0 mm
02:20 11.9 °C 10.8 °C 1012.4 hPa Calm     93% 0 mm
02:25 11.9 °C 10.8 °C 1012.4 hPa Calm     93% 0 mm
02:30 11.9 °C 10.8 °C 1012.4 hPa Calm     93% 0 mm
02:40 11.8 °C 10.7 °C 1012.4 hPa Calm     93% 0 mm
02:45 11.9 °C 10.9 °C 1012.1 hPa Calm     94% 0 mm
02:50 11.8 °C 10.7 °C 1012.1 hPa Calm     93% 0 mm
02:55 11.8 °C 10.7 °C 1012.4 hPa Calm     93% 0 mm
03:00 11.9 °C 10.9 °C 1012.4 hPa Calm     94% 0 mm
03:05 11.8 °C 10.7 °C 1012.4 hPa Calm     93% 0 mm
03:10 11.7 °C 10.6 °C 1012.1 hPa Calm     93% 0 mm
03:20 11.7 °C 10.7 °C 1012.1 hPa Calm     94% 0 mm
03:25 11.7 °C 10.8 °C 1012.1 hPa Calm     94% 0 mm
03:30 11.6 °C 10.6 °C 1012.1 hPa Calm     94% 0 mm
03:35 11.6 °C 10.6 °C 1012.1 hPa Calm     94% 0 mm
03:40 11.4 °C 10.5 °C 1012.1 hPa Calm     94% 0 mm
03:45 11.4 °C 10.3 °C 1012.1 hPa Calm     93% 0 mm
03:50 11.3 °C 10.3 °C 1012.1 hPa Calm     94% 0 mm
03:55 11.4 °C 10.4 °C 1012.1 hPa Calm     94% 0 mm
04:00 11.4 °C 10.4 °C 1011.7 hPa Calm     94% 0 mm
04:05 11.5 °C 10.6 °C 1012.1 hPa Calm     94% 0 mm
04:10 11.4 °C 10.5 °C 1012.1 hPa Calm     94% 0 mm
04:15 11.4 °C 10.4 °C 1011.7 hPa Calm     94% 0 mm
04:20 11.3 °C 10.3 °C 1011.7 hPa Calm     94% 0 mm
04:25 11.3 °C 10.3 °C 1011.7 hPa Calm     94% 0 mm
04:30 11.4 °C 10.6 °C 1011.7 hPa Calm     95% 0 mm
04:35 11.5 °C 10.7 °C 1011.7 hPa Calm     95% 0 mm
04:40 11.5 °C 10.7 °C 1011.7 hPa Calm   1.6 km/h 95% 0 mm
04:45 11.5 °C 10.7 °C 1012.1 hPa Calm   1.6 km/h 95% 0 mm
04:50 11.4 °C 10.7 °C 1012.1 hPa Calm     95% 0 mm
05:00 11.2 °C 10.4 °C 1012.1 hPa Calm     95% 0 mm
05:05 11.2 °C 10.4 °C 1012.1 hPa Calm     95% 0 mm
05:10 11.3 °C 10.6 °C 1012.1 hPa Calm     95% 0 mm
05:15 11.4 °C 10.7 °C 1012.1 hPa WNW 1.6 km/h 4.8 km/h 95% 0 mm
05:20 11.7 °C 10.9 °C 1011.7 hPa Calm   4.8 km/h 95% 0 mm
05:25 11.9 °C 11.3 °C 1011.7 hPa WNW 1.6 km/h 4.8 km/h 96% 0 mm
05:30 12.2 °C 11.4 °C 1011.7 hPa Calm   4.8 km/h 95% 0 mm
05:35 11.9 °C 11.2 °C 1011.7 hPa West 1.6 km/h 4.8 km/h 95% 0 mm
05:40 11.7 °C 10.7 °C 1011.7 hPa Calm   4.8 km/h 94% 0 mm
05:45 11.6 °C 10.6 °C 1011.4 hPa Calm   4.8 km/h 94% 0 mm
05:50 11.5 °C 10.6 °C 1011.7 hPa Calm     94% 0 mm
05:55 11.4 °C 10.5 °C 1011.7 hPa Calm     94% 0 mm
06:00 11.4 °C 10.7 °C 1011.7 hPa Calm     95% 0 mm
06:05 11.4 °C 10.7 °C 1012.1 hPa Calm     95% 0 mm
06:10 11.3 °C 10.4 °C 1012.1 hPa Calm     94% 0 mm
06:15 11.4 °C 10.6 °C 1011.7 hPa Calm   3.2 km/h 95% 0 mm
06:20 11.6 °C 10.8 °C 1011.7 hPa SW 1.6 km/h 4.8 km/h 95% 0 mm
06:25 11.9 °C 11.2 °C 1012.1 hPa Calm   4.8 km/h 95% 0 mm
06:30 12.1 °C 11.3 °C 1012.1 hPa Calm   1.6 km/h 95% 0 mm
06:40 12.6 °C 11.8 °C 1012.1 hPa Calm   1.6 km/h 95% 0 mm
06:45 12.9 °C 12.1 °C 1012.1 hPa Calm   4.8 km/h 95% 0 mm
06:50 13.2 °C 12.4 °C 1012.1 hPa SW 1.6 km/h 4.8 km/h 95% 0 mm
06:55 13.6 °C 12.8 °C 1012.1 hPa Calm   4.8 km/h 95% 0 mm
07:00 14.1 °C 13.1 °C 1012.1 hPa Calm   6.4 km/h 94% 0 mm
07:10 15.1 °C 13.6 °C 1012.1 hPa Calm   4.8 km/h 91% 0 mm
07:15 15.6 °C 13.6 °C 1012.1 hPa SW 1.6 km/h 4.8 km/h 88% 0 mm
07:20 16 °C 13.5 °C 1012.1 hPa SW 1.6 km/h 8 km/h 85% 0 mm
07:25 16.4 °C 13.4 °C 1012.1 hPa SW 1.6 km/h 8 km/h 82% 0 mm
07:30 16.8 °C 13.4 °C 1012.1 hPa Calm   6.4 km/h 80% 0 mm
07:35 17.1 °C 13.6 °C 1012.1 hPa Calm   3.2 km/h 80% 0 mm
07:40 17.4 °C 13.7 °C 1012.1 hPa Calm   1.6 km/h 79% 0 mm
07:45 17.7 °C 13.6 °C 1012.4 hPa SW 3.2 km/h 8 km/h 77% 0 mm
07:50 17.9 °C 13.8 °C 1012.1 hPa Calm   8 km/h 77% 0 mm
07:55 18.3 °C 13.8 °C 1012.1 hPa SW 3.2 km/h 11.3 km/h 75% 0 mm
08:00 18.7 °C 14.4 °C 1012.4 hPa Calm   11.3 km/h 76% 0 mm
08:05 19.2 °C 14.4 °C 1012.4 hPa SW 1.6 km/h 11.3 km/h 74% 0 mm
08:10 19.3 °C 14.1 °C 1012.4 hPa SW 1.6 km/h 11.3 km/h 72% 0 mm
08:15 19.6 °C 14.2 °C 1012.4 hPa SSW 1.6 km/h 8 km/h 71% 0 mm
08:20 19.8 °C 14.2 °C 1012.4 hPa SSW 3.2 km/h 12.9 km/h 70% 0 mm
08:25 19.9 °C 14.5 °C 1012.1 hPa SSW 3.2 km/h 12.9 km/h 71% 0 mm
08:30 20 °C 14.2 °C 1012.1 hPa SW 4.8 km/h 14.5 km/h 69% 0 mm
08:35 20.3 °C 14.8 °C 1012.1 hPa SW 1.6 km/h 14.5 km/h 71% 0 mm
08:40 20.6 °C 14.7 °C 1012.1 hPa SSW 3.2 km/h 9.7 km/h 69% 0 mm
08:45 20.8 °C 14.7 °C 1012.1 hPa SSW 1.6 km/h 12.9 km/h 68% 0 mm
08:50 21 °C 14.7 °C 1012.1 hPa SW 3.2 km/h 12.9 km/h 67% 0 mm
08:55 21 °C 14.9 °C 1012.1 hPa SSW 3.2 km/h 12.9 km/h 68% 0 mm
09:05 21.2 °C 14.8 °C 1012.1 hPa SW 6.4 km/h 14.5 km/h 67% 0 mm
09:10 21.3 °C 15.4 °C 1012.1 hPa SW 3.2 km/h 14.5 km/h 69% 0 mm
09:15 21.5 °C 15.3 °C 1012.1 hPa SW 3.2 km/h 12.9 km/h 68% 0 mm
09:20 21.7 °C 15.9 °C 1012.1 hPa WSW 3.2 km/h 12.9 km/h 70% 0 mm
09:25 21.7 °C 15.6 °C 1012.1 hPa Calm   16.1 km/h 68% 0 mm
09:30 22.1 °C 16.3 °C 1011.7 hPa Calm   16.1 km/h 70% 0 mm
09:35 22.3 °C 15.6 °C 1011.7 hPa SSW 4.8 km/h 12.9 km/h 66% 0 mm
09:40 22.3 °C 14.9 °C 1011.7 hPa SSW 8 km/h 19.3 km/h 63% 0 mm
09:45 22.7 °C 15.8 °C 1011.7 hPa Calm   19.3 km/h 65% 0 mm
09:50 22.9 °C 15.9 °C 1011.7 hPa SW 3.2 km/h 17.7 km/h 65% 0 mm
09:55 22.9 °C 15.9 °C 1011.7 hPa SW 1.6 km/h 17.7 km/h 65% 0 mm
10:05 23.2 °C 15.8 °C 1011.4 hPa SSW 1.6 km/h 16.1 km/h 63% 0 mm
10:10 23.4 °C 16 °C 1011.7 hPa SW 3.2 km/h 12.9 km/h 63% 0 mm
10:15 23.8 °C 15.8 °C 1011.7 hPa SW 8 km/h 14.5 km/h 61% 0 mm
10:20 23.7 °C 16.3 °C 1011.7 hPa SW 4.8 km/h 14.5 km/h 63% 0 mm
10:25 23.8 °C 16.9 °C 1011.4 hPa SW 4.8 km/h 12.9 km/h 65% 0 mm
10:35 24.3 °C 16.6 °C 1011.4 hPa WSW 1.6 km/h 11.3 km/h 62% 0 mm
10:40 24.4 °C 16.2 °C 1011.4 hPa SW 8 km/h 12.9 km/h 60% 0 mm
10:45 24.4 °C 16.4 °C 1011.1 hPa SSW 3.2 km/h 12.9 km/h 61% 0 mm
10:50 24.6 °C 16.6 °C 1011.4 hPa SW 4.8 km/h 14.5 km/h 61% 0 mm
10:55 24.7 °C 17.2 °C 1011.4 hPa NW 4.8 km/h 14.5 km/h 63% 0 mm
11:00 24.7 °C 16.7 °C 1011.1 hPa SW 1.6 km/h 12.9 km/h 61% 0 mm
11:10 24.8 °C 14.9 °C 1011.1 hPa West 3.2 km/h 17.7 km/h 54% 0 mm
11:15 24.8 °C 15.4 °C 1011.1 hPa West 4.8 km/h 14.5 km/h 56% 0 mm
11:20 24.7 °C 14.8 °C 1011.1 hPa Calm   14.5 km/h 54% 0 mm
11:25 24.9 °C 15.2 °C 1011.1 hPa SW 4.8 km/h 12.9 km/h 55% 0 mm
11:30 25.1 °C 13.9 °C 1011.1 hPa SW 3.2 km/h 12.9 km/h 50% 0 mm
11:35 25.3 °C 14.1 °C 1011.1 hPa Calm   11.3 km/h 50% 0 mm
11:40 25.4 °C 15.4 °C 1011.1 hPa WSW 3.2 km/h 9.7 km/h 54% 0 mm
11:45 25.6 °C 14.1 °C 1011.1 hPa WNW 4.8 km/h 9.7 km/h 49% 0 mm
11:50 25.7 °C 14.8 °C 1011.1 hPa NW 6.4 km/h 12.9 km/h 51% 0 mm
12:00 25.7 °C 14.8 °C 1010.7 hPa SW 1.6 km/h 11.3 km/h 51% 0 mm
12:05 25.8 °C 14 °C 1010.7 hPa WSW 4.8 km/h 9.7 km/h 48% 0 mm
12:10 25.9 °C 15.7 °C 1010.7 hPa SSW 3.2 km/h 11.3 km/h 53% 0 mm
12:15 26.3 °C 14.1 °C 1010.7 hPa WSW 1.6 km/h 11.3 km/h 47% 0 mm
12:20 26.1 °C 14.6 °C 1010.4 hPa NW 4.8 km/h 14.5 km/h 49% 0 mm
12:25 26.3 °C 14.7 °C 1010.4 hPa NW 4.8 km/h 14.5 km/h 49% 0 mm
12:30 26.3 °C 16 °C 1010.4 hPa SSW 3.2 km/h 11.3 km/h 53% 0 mm
12:35 26.6 °C 15.6 °C 1010.4 hPa WNW 3.2 km/h 11.3 km/h 51% 0 mm
12:40 26.7 °C 13.8 °C 1010 hPa WNW 3.2 km/h 11.3 km/h 45% 0 mm
12:45 26.6 °C 15.9 °C 1010 hPa SW 3.2 km/h 12.9 km/h 52% 0 mm
12:50 26.4 °C 13.6 °C 1010 hPa Calm   12.9 km/h 45% 0 mm
12:55 26.5 °C 14.6 °C 1010 hPa WSW 4.8 km/h 11.3 km/h 48% 0 mm
13:00 26.6 °C 15.1 °C 1010 hPa WNW 6.4 km/h 11.3 km/h 49% 0 mm
13:05 26.6 °C 15.3 °C 1010 hPa West 1.6 km/h 11.3 km/h 50% 0 mm
13:10 26.7 °C 14.1 °C 1009.7 hPa SW 4.8 km/h 11.3 km/h 46% 0 mm
13:20 26.7 °C 14.5 °C 1009.7 hPa SW 4.8 km/h 12.9 km/h 47% 0 mm
13:25 26.9 °C 13.6 °C 1009.7 hPa Calm   12.9 km/h 44% 0 mm
13:30 27 °C 14.4 °C 1009.7 hPa WNW 3.2 km/h 11.3 km/h 46% 0 mm
13:35 27.1 °C 14.2 °C 1009.4 hPa Calm   8 km/h 45% 0 mm
13:40 27.6 °C 15.6 °C 1009.4 hPa Calm   1.6 km/h 48% 0 mm
13:45 27.8 °C 16.2 °C 1009.4 hPa SW 6.4 km/h 12.9 km/h 49% 0 mm
13:50 27.7 °C 16.1 °C 1009.4 hPa West 4.8 km/h 12.9 km/h 49% 0 mm
13:55 27.6 °C 14.2 °C 1009.4 hPa Calm   9.7 km/h 44% 0 mm
14:00 27.1 °C 13.8 °C 1009.4 hPa West 4.8 km/h 12.9 km/h 44% 0 mm
14:05 26.6 °C 15.3 °C 1009.4 hPa Calm   12.9 km/h 50% 0 mm
14:10 26.4 °C 13.9 °C 1009.4 hPa Calm   6.4 km/h 46% 0 mm
14:15 26.5 °C 13.6 °C 1009 hPa Calm   1.6 km/h 45% 0 mm
14:20 26.7 °C 16.6 °C 1009 hPa Calm   1.6 km/h 54% 0 mm
14:25 27.1 °C 14.2 °C 1009 hPa Calm   1.6 km/h 45% 0 mm
14:30 27.4 °C 15.8 °C 1009 hPa Calm   1.6 km/h 49% 0 mm
14:35 27.4 °C 16.4 °C 1008.7 hPa Calm   1.6 km/h 51% 0 mm
14:40 27.3 °C 14 °C 1008.7 hPa Calm   1.6 km/h 44% 0 mm
14:45 27.3 °C 14.3 °C 1008.4 hPa Calm   1.6 km/h 45% 0 mm
14:50 27.1 °C 14.8 °C 1008.4 hPa Calm   1.6 km/h 47% 0 mm
15:00 26.9 °C 16.6 °C 1008.4 hPa Calm     53% 0 mm
15:05 27.2 °C 15.8 °C 1008.4 hPa Calm     50% 0 mm
15:10 27.1 °C 14.2 °C 1008.4 hPa Calm     45% 0 mm
15:15 27.3 °C 13.6 °C 1008.4 hPa Calm   4.8 km/h 43% 0 mm
15:20 27.6 °C 15.6 °C 1008 hPa Calm   4.8 km/h 48% 0 mm
15:30 27.8 °C 14.5 °C 1008 hPa Calm   4.8 km/h 44% 0 mm
15:40 28.3 °C 16.3 °C 1008 hPa Calm   1.6 km/h 48% 0 mm
15:45 28.7 °C 16.9 °C 1008.4 hPa Calm   1.6 km/h 49% 0 mm
15:55 28.5 °C 14.3 °C 1008 hPa Calm   4.8 km/h 42% 0 mm
16:00 28.6 °C 14.4 °C 1008 hPa Calm   1.6 km/h 42% 0 mm
17:05 28.4 °C 16.7 °C 1007.7 hPa Calm   1.6 km/h 49% 0 mm
17:10 28.5 °C 15.1 °C 1007.3 hPa Calm   6.4 km/h 44% 0 mm
17:15 28.7 °C 14.9 °C 1007.3 hPa Calm   6.4 km/h 43% 0 mm
17:20 28.7 °C 16 °C 1007.3 hPa SW 1.6 km/h 4.8 km/h 46% 0 mm
17:25 28.7 °C 14.9 °C 1007.3 hPa SW 4.8 km/h 9.7 km/h 43% 0 mm
17:30 28.3 °C 15.3 °C 1007 hPa Calm   9.7 km/h 45% 0 mm
17:35 28.3 °C 15.9 °C 1007.3 hPa Calm   8 km/h 47% 0 mm
17:40 28.2 °C 16.2 °C 1007.3 hPa Calm   8 km/h 48% 0 mm
17:45 28.2 °C 14.8 °C 1007.3 hPa Calm   4.8 km/h 44% 0 mm
17:50 28.2 °C 14.4 °C 1007.3 hPa Calm   4.8 km/h 43% 0 mm
17:55 28.3 °C 16.2 °C 1007.3 hPa Calm   1.6 km/h 48% 0 mm
18:00 28.2 °C 16.8 °C 1007 hPa Calm   8 km/h 50% 0 mm
18:05 28.3 °C 16.3 °C 1007 hPa Calm   8 km/h 48% 0 mm
18:10 28.3 °C 14.9 °C 1007.3 hPa SW 3.2 km/h 8 km/h 44% 0 mm
18:15 28.1 °C 15.1 °C 1007.3 hPa Calm   8 km/h 45% 0 mm
18:20 27.9 °C 15.2 °C 1007.3 hPa Calm   1.6 km/h 46% 0 mm
18:25 27.8 °C 15.5 °C 1007.3 hPa Calm   1.6 km/h 47% 0 mm
18:30 27.8 °C 16.4 °C 1007.3 hPa Calm   1.6 km/h 50% 0 mm
18:35 27.7 °C 15.7 °C 1007.3 hPa WSW 1.6 km/h 8 km/h 48% 0 mm
18:40 27.6 °C 15.9 °C 1007.3 hPa Calm   8 km/h 49% 0 mm
18:45 27.2 °C 17.7 °C 1007.3 hPa Calm   1.6 km/h 56% 0 mm
18:50 26.7 °C 18.8 °C 1007.3 hPa Calm   1.6 km/h 62% 0 mm
18:55 25.9 °C 18.6 °C 1007.3 hPa Calm     64% 0 mm
19:00 25.3 °C 18.7 °C 1007.7 hPa Calm     67% 0 mm
19:25 23.2 °C 16.7 °C 1008 hPa Calm     67% 0 mm
19:30 23 °C 17 °C 1007.7 hPa Calm     69% 0 mm
19:35 22.9 °C 16.9 °C 1007.7 hPa Calm     69% 0 mm
19:40 22.8 °C 17.1 °C 1008 hPa Calm     70% 0 mm
19:45 22.7 °C 17 °C 1008 hPa Calm   1.6 km/h 70% 0 mm
19:50 22.4 °C 16.5 °C 1008 hPa Calm   1.6 km/h 69% 0 mm
19:55 22.2 °C 16.3 °C 1008 hPa Calm     69% 0 mm
20:00 22 °C 16.3 °C 1008 hPa Calm   1.6 km/h 70% 0 mm
20:05 21.8 °C 16.3 °C 1008 hPa Calm   1.6 km/h 71% 0 mm
20:10 21.6 °C 16.1 °C 1008.4 hPa Calm     71% 0 mm
20:15 21.4 °C 16.8 °C 1008 hPa Calm     75% 0 mm
20:20 21.1 °C 16.5 °C 1008 hPa Calm     75% 0 mm
20:25 20.8 °C 16.4 °C 1008 hPa Calm     76% 0 mm
20:30 20.4 °C 16 °C 1008 hPa Calm     76% 0 mm
20:40 19.6 °C 15.6 °C 1008 hPa Calm     78% 0 mm
20:45 19.3 °C 15.6 °C 1008.4 hPa Calm     79% 0 mm
20:50 19.1 °C 15.6 °C 1008.4 hPa Calm     80% 0 mm
21:00 18.6 °C 15.2 °C 1008.4 hPa Calm     81% 0 mm
21:05 18.4 °C 15.1 °C 1008.7 hPa Calm     81% 0 mm
21:10 18.2 °C 15.1 °C 1008.7 hPa Calm     82% 0 mm
21:15 18.1 °C 15 °C 1008.7 hPa Calm     82% 0 mm
21:20 17.9 °C 15 °C 1008.7 hPa Calm     83% 0 mm
21:25 17.9 °C 14.9 °C 1008.7 hPa Calm     83% 0 mm
21:30 17.9 °C 14.9 °C 1008.7 hPa Calm     83% 0 mm
21:35 17.8 °C 14.9 °C 1008.7 hPa Calm     83% 0 mm
21:40 17.7 °C 15 °C 1008.7 hPa Calm     84% 0 mm
21:45 17.7 °C 14.9 °C 1008.7 hPa Calm     84% 0 mm
21:50 17.7 °C 15.1 °C 1008.7 hPa Calm     85% 0 mm
21:55 17.6 °C 15 °C 1009 hPa Calm     85% 0 mm
22:00 17.5 °C 15.1 °C 1009 hPa Calm     86% 0 mm
22:05 17.4 °C 15 °C 1009 hPa Calm     86% 0 mm
22:10 17.3 °C 14.9 °C 1009 hPa Calm     86% 0 mm
22:15 17.3 °C 15.1 °C 1009 hPa Calm     87% 0 mm
22:20 17.2 °C 15.1 °C 1009 hPa Calm     87% 0 mm
22:25 17.2 °C 15.1 °C 1009 hPa Calm     87% 0 mm
22:30 17.3 °C 15.3 °C 1009 hPa Calm     88% 0 mm
22:35 17.3 °C 15.3 °C 1009 hPa Calm     88% 0 mm
22:40 17.3 °C 15.3 °C 1009 hPa Calm     88% 0 mm
22:45 17.3 °C 15.3 °C 1009 hPa Calm     88% 0 mm
22:50 17.2 °C 15.2 °C 1009 hPa Calm     88% 0 mm
22:55 17.2 °C 15.2 °C 1009 hPa Calm     88% 0 mm
23:00 17.1 °C 14.9 °C 1009 hPa Calm     87% 0 mm
23:05 17.1 °C 14.9 °C 1009 hPa Calm     87% 0 mm
23:10 17 °C 14.8 °C 1009 hPa Calm     87% 0 mm
23:20 16.8 °C 14.7 °C 1009 hPa Calm     87% 0 mm
23:25 16.7 °C 14.6 °C 1009 hPa Calm     87% 0 mm
23:30 16.7 °C 14.7 °C 1009 hPa Calm     88% 0 mm
23:35 16.6 °C 14.4 °C 1009 hPa Calm     87% 0 mm
23:40 16.6 °C 14.6 °C 1009 hPa Calm     88% 0 mm
23:45 16.6 °C 14.4 °C 1009 hPa Calm     87% 0 mm
23:50 16.7 °C 14.5 °C 1009 hPa Calm   1.6 km/h 87% 0 mm
23:55 16.7 °C 14.6 °C 1009 hPa Calm   1.6 km/h 87% 0 mm
Westford Weather
Compliments of Weather Underground

 
 
Current Radar Loop:

Copyright © WestfordWeather.net 2007-2014. All rights reserved.